createdAt,value
2019-03-26T00:00:36.361Z,100463.21
2019-03-26T00:03:13.056Z,100461.86
2019-03-26T00:05:47.367Z,100461.59
2019-03-26T00:08:19.031Z,100466.75
2019-03-26T00:10:52.022Z,100457.06
2019-03-26T00:13:25.294Z,100453.59
2019-03-26T00:15:56.976Z,100457.06
2019-03-26T00:18:32.010Z,100452.73
2019-03-26T00:21:03.654Z,100455.68
2019-03-26T00:23:35.219Z,100452.98
2019-03-26T00:26:09.940Z,100454.27
2019-03-26T00:28:41.708Z,100451.03
2019-03-26T00:31:13.376Z,100447.55
2019-03-26T00:33:45.122Z,100440.30
2019-03-26T00:36:16.985Z,100439.20
2019-03-26T00:38:48.881Z,100437.58
2019-03-26T00:41:20.721Z,100437.04
2019-03-26T00:43:56.573Z,100431.90
2019-03-26T00:46:28.130Z,100435.94
2019-03-26T00:48:59.896Z,100441.56
2019-03-26T00:51:31.528Z,100439.11
2019-03-26T00:54:03.218Z,100442.36
2019-03-26T00:56:35.054Z,100443.72
2019-03-26T00:59:06.604Z,100439.11
2019-03-26T01:01:38.184Z,100454.41
2019-03-26T01:04:09.712Z,100448.55
2019-03-26T01:06:41.494Z,100450.70
2019-03-26T01:09:13.454Z,100456.36
2019-03-26T01:11:45.306Z,100459.36
2019-03-26T01:14:16.959Z,100454.50
2019-03-26T01:16:48.644Z,100456.91
2019-03-26T01:19:20.282Z,100454.73
2019-03-26T01:21:51.940Z,100454.98
2019-03-26T01:24:23.519Z,100463.09
2019-03-26T01:26:55.485Z,100460.45
2019-03-26T01:29:26.985Z,100463.11
2019-03-26T01:31:58.803Z,100470.91
2019-03-26T01:34:45.254Z,100469.28
2019-03-26T01:37:06.717Z,100462.31
2019-03-26T01:39:38.582Z,100462.31
2019-03-26T01:42:10.334Z,100460.72
2019-03-26T01:44:41.926Z,100462.27
2019-03-26T01:47:13.884Z,100463.13
2019-03-26T01:49:45.393Z,100456.14
2019-03-26T01:52:17.066Z,100452.38
2019-03-26T01:54:48.815Z,100457.22
2019-03-26T01:57:20.589Z,100456.72
2019-03-26T01:59:52.142Z,100449.70
2019-03-26T02:02:23.981Z,100466.14
2019-03-26T02:05:00.245Z,100468.53
2019-03-26T02:07:29.977Z,100471.77
2019-03-26T02:10:01.819Z,100475.81
2019-03-26T02:12:33.375Z,100477.67
2019-03-26T02:15:07.164Z,100482.27
2019-03-26T02:17:38.863Z,100483.59
2019-03-26T02:20:10.525Z,100489.77
2019-03-26T02:22:42.056Z,100494.62
2019-03-26T02:25:13.842Z,100487.11
2019-03-26T02:27:45.681Z,100487.91
2019-03-26T02:30:17.357Z,100487.68
2019-03-26T02:32:49.223Z,100494.89
2019-03-26T02:35:20.873Z,100497.08
2019-03-26T02:37:52.638Z,100497.33
2019-03-26T02:40:24.400Z,100495.73
2019-03-26T02:42:57.297Z,100494.39
2019-03-26T02:45:28.746Z,100504.33
2019-03-26T02:48:00.396Z,100505.39
2019-03-26T02:50:32.254Z,100508.91
2019-03-26T02:53:03.996Z,100504.05
2019-03-26T02:55:35.875Z,100501.89
2019-03-26T02:58:08.578Z,100503.50
2019-03-26T03:00:39.991Z,100505.37
2019-03-26T03:03:11.855Z,100505.14
2019-03-26T03:05:43.639Z,100511.59
2019-03-26T03:08:15.299Z,100516.69
2019-03-26T03:10:46.952Z,100519.38
2019-03-26T03:13:19.941Z,100514.02
2019-03-26T03:15:51.678Z,100516.13
2019-03-26T03:18:23.456Z,100511.59
2019-03-26T03:20:54.894Z,100508.92
2019-03-26T03:23:26.667Z,100502.44
2019-03-26T03:25:58.325Z,100513.20
2019-03-26T03:28:29.890Z,100509.69
2019-03-26T03:31:01.334Z,100519.88
2019-03-26T03:33:33.097Z,100528.73
2019-03-26T03:36:04.665Z,100528.23
2019-03-26T03:38:36.393Z,100533.86
2019-03-26T03:41:08.165Z,100536.02
2019-03-26T03:43:39.827Z,100534.41
2019-03-26T03:46:11.689Z,100535.78
2019-03-26T03:48:43.347Z,100536.03
2019-03-26T03:51:15.193Z,100539.27
2019-03-26T03:53:46.843Z,100538.17
2019-03-26T03:56:18.540Z,100532.78
2019-03-26T03:58:50.384Z,100538.17
2019-03-26T04:01:22.038Z,100541.42
2019-03-26T04:03:53.600Z,100550.27
2019-03-26T04:06:25.444Z,100548.66
2019-03-26T04:08:57.201Z,100554.56
2019-03-26T04:11:28.758Z,100559.95
2019-03-26T04:14:00.753Z,100553.77
2019-03-26T04:16:32.403Z,100555.41
2019-03-26T04:19:04.064Z,100565.63
2019-03-26T04:21:35.909Z,100561.88
2019-03-26T04:24:07.558Z,100560.78
2019-03-26T04:26:39.543Z,100555.13
2019-03-26T04:29:11.309Z,100555.67
2019-03-26T04:31:42.757Z,100549.73
2019-03-26T04:34:14.607Z,100542.00
2019-03-26T04:36:46.063Z,100541.78
2019-03-26T04:39:17.630Z,100540.66
2019-03-26T04:41:49.263Z,100536.08
2019-03-26T04:44:20.906Z,100543.86
2019-03-26T04:46:52.697Z,100543.86
2019-03-26T04:49:24.451Z,100551.22
2019-03-26T04:51:56.300Z,100551.20
2019-03-26T04:54:28.082Z,100563.84
2019-03-26T04:56:59.674Z,100564.12
2019-03-26T04:59:31.503Z,100568.16
2019-03-26T05:02:03.290Z,100571.41
2019-03-26T05:04:35.224Z,100575.72
2019-03-26T05:07:06.861Z,100571.41
2019-03-26T05:09:38.429Z,100573.86
2019-03-26T05:12:10.129Z,100577.34
2019-03-26T05:14:42.032Z,100577.64
2019-03-26T05:17:13.794Z,100581.42
2019-03-26T05:19:45.573Z,100581.44
2019-03-26T05:22:24.202Z,100579.00
2019-03-26T05:24:50.633Z,100579.02
2019-03-26T05:27:23.523Z,100579.05
2019-03-26T05:29:55.495Z,100586.03
2019-03-26T05:32:26.930Z,100587.94
2019-03-26T05:34:58.693Z,100585.26
2019-03-26T05:37:30.378Z,100585.02
2019-03-26T05:40:02.004Z,100585.00
2019-03-26T05:42:33.747Z,100585.84
2019-03-26T05:45:07.763Z,100581.81
2019-03-26T05:47:39.223Z,100593.70
2019-03-26T05:50:10.899Z,100596.37
2019-03-26T05:52:42.659Z,100599.34
2019-03-26T05:55:14.099Z,100608.23
2019-03-26T05:57:45.656Z,100614.15
2019-03-26T06:00:20.092Z,100623.30
2019-03-26T06:02:51.198Z,100620.61
2019-03-26T06:05:22.879Z,100621.70
2019-03-26T06:07:54.545Z,100616.32
2019-03-26T06:10:26.197Z,100630.06
2019-03-26T06:12:57.791Z,100628.17
2019-03-26T06:15:29.308Z,100626.02
2019-03-26T06:18:01.264Z,100629.55
2019-03-26T06:20:32.911Z,100632.80
2019-03-26T06:23:04.792Z,100627.67
2019-03-26T06:25:36.560Z,100638.20
2019-03-26T06:28:08.313Z,100630.38
2019-03-26T06:30:39.973Z,100638.98
2019-03-26T06:33:11.840Z,100633.00
2019-03-26T06:35:43.580Z,100621.10
2019-03-26T06:38:15.545Z,100628.91
2019-03-26T06:40:47.204Z,100633.47
2019-03-26T06:43:18.770Z,100637.51
2019-03-26T06:45:50.619Z,100633.17
2019-03-26T06:48:22.397Z,100636.66
2019-03-26T06:50:54.470Z,100636.06
2019-03-26T06:53:26.384Z,100640.34
2019-03-26T06:55:57.984Z,100636.41
2019-03-26T06:58:29.539Z,100639.38
2019-03-26T07:01:01.504Z,100633.14
2019-03-26T07:03:33.363Z,100630.91
2019-03-26T07:06:04.799Z,100635.51
2019-03-26T07:08:36.452Z,100652.16
2019-03-26T07:11:08.325Z,100657.18
2019-03-26T07:13:40.030Z,100659.72
2019-03-26T07:16:11.550Z,100666.05
2019-03-26T07:18:43.183Z,100671.73
2019-03-26T07:21:15.067Z,100673.28
2019-03-26T07:23:46.687Z,100678.24
2019-03-26T07:26:18.575Z,100675.54
2019-03-26T07:28:50.131Z,100678.98
2019-03-26T07:31:21.807Z,100675.82
2019-03-26T07:33:53.654Z,100670.83
2019-03-26T07:36:25.529Z,100664.26
2019-03-26T07:38:57.369Z,100664.06
2019-03-26T07:41:29.141Z,100656.63
2019-03-26T07:44:00.915Z,100654.78
2019-03-26T07:46:32.671Z,100665.46
2019-03-26T07:49:04.516Z,100667.13
2019-03-26T07:51:36.518Z,100667.19
2019-03-26T07:54:08.239Z,100663.05
2019-03-26T07:56:41.368Z,100670.05
2019-03-26T07:59:13.004Z,100665.46
2019-03-26T08:01:44.770Z,100661.94
2019-03-26T08:04:16.411Z,100661.05
2019-03-26T08:06:48.499Z,100658.81
2019-03-26T08:09:20.252Z,100663.70
2019-03-26T08:11:51.795Z,100662.41
2019-03-26T08:14:23.532Z,100661.78
2019-03-26T08:16:55.038Z,100655.77
2019-03-26T08:19:26.666Z,100661.31
2019-03-26T08:21:58.522Z,100664.72
2019-03-26T08:24:30.192Z,100670.45
2019-03-26T08:27:01.957Z,100672.38
2019-03-26T08:29:35.540Z,100667.11
2019-03-26T08:32:07.217Z,100675.22
2019-03-26T08:34:38.877Z,100671.69
2019-03-26T08:37:10.708Z,100679.78
2019-03-26T08:39:42.394Z,100674.10
2019-03-26T08:42:14.041Z,100688.25
2019-03-26T08:44:45.917Z,100692.14
2019-03-26T08:47:17.879Z,100697.28
2019-03-26T08:49:49.436Z,100700.00
2019-03-26T08:52:21.292Z,100701.77
2019-03-26T08:54:52.854Z,100702.66
2019-03-26T08:57:24.492Z,100702.05
2019-03-26T08:59:57.396Z,100701.87
2019-03-26T09:02:29.052Z,100699.31
2019-03-26T09:05:00.497Z,100701.58
2019-03-26T09:07:32.367Z,100707.08
2019-03-26T09:10:04.331Z,100710.66
2019-03-26T09:12:35.798Z,100713.38
2019-03-26T09:15:09.849Z,100708.80
2019-03-26T09:17:44.213Z,100708.20
2019-03-26T09:20:15.829Z,100711.30
2019-03-26T09:22:47.641Z,100700.95
2019-03-26T09:25:19.403Z,100708.63
2019-03-26T09:27:52.487Z,100696.25
2019-03-26T09:30:24.152Z,100696.02
2019-03-26T09:32:56.020Z,100694.52
2019-03-26T09:35:27.665Z,100694.91
2019-03-26T09:37:59.331Z,100694.84
2019-03-26T09:40:31.176Z,100696.23
2019-03-26T09:43:02.838Z,100698.20
2019-03-26T09:45:34.807Z,100692.19
2019-03-26T09:48:06.460Z,100702.53
2019-03-26T09:50:38.338Z,100701.74
2019-03-26T09:53:10.095Z,100701.11
2019-03-26T09:55:41.557Z,100698.73
2019-03-26T09:58:13.293Z,100694.14
2019-03-26T10:00:45.167Z,100693.61
2019-03-26T10:03:16.833Z,100690.34
2019-03-26T10:05:48.471Z,100686.77
2019-03-26T10:08:20.127Z,100689.67
2019-03-26T10:10:52.008Z,100690.66
2019-03-26T10:13:23.547Z,100688.67
2019-03-26T10:15:55.506Z,100691.70
2019-03-26T10:18:27.186Z,100683.76
2019-03-26T10:21:00.170Z,100686.09
2019-03-26T10:23:31.916Z,100680.55
2019-03-26T10:26:04.411Z,100687.48
2019-03-26T10:28:35.946Z,100684.16
2019-03-26T10:31:07.520Z,100679.58
2019-03-26T10:33:39.381Z,100673.03
2019-03-26T10:36:10.940Z,100667.67
2019-03-26T10:38:42.586Z,100669.58
2019-03-26T10:41:14.344Z,100665.72
2019-03-26T10:43:46.017Z,100667.07
2019-03-26T10:46:17.776Z,100664.49
2019-03-26T10:48:49.421Z,100663.61
2019-03-26T10:51:20.985Z,100664.40
2019-03-26T10:53:52.859Z,100658.97
2019-03-26T10:56:24.492Z,100657.70
2019-03-26T10:58:56.163Z,100661.95
2019-03-26T11:01:27.602Z,100666.25
2019-03-26T11:03:59.483Z,100654.98
2019-03-26T11:06:31.341Z,100658.70
2019-03-26T11:09:04.433Z,100664.34
2019-03-26T11:11:36.087Z,100658.88
2019-03-26T11:14:07.536Z,100661.70
2019-03-26T11:16:39.325Z,100661.70
2019-03-26T11:19:10.952Z,100664.37
2019-03-26T11:21:42.510Z,100660.67
2019-03-26T11:24:15.495Z,100659.83
2019-03-26T11:26:47.269Z,100661.16
2019-03-26T11:29:18.930Z,100655.31
2019-03-26T11:31:50.591Z,100662.88
2019-03-26T11:34:22.232Z,100661.00
2019-03-26T11:36:54.007Z,100655.73
2019-03-26T11:39:32.762Z,100652.94
2019-03-26T11:41:58.636Z,100653.31
2019-03-26T11:44:30.088Z,100650.35
2019-03-26T11:47:02.055Z,100656.61
2019-03-26T11:49:33.626Z,100651.66
2019-03-26T11:52:05.491Z,100655.03
2019-03-26T11:54:37.214Z,100646.39
2019-03-26T11:57:08.781Z,100647.78
2019-03-26T11:59:40.572Z,100645.27
2019-03-26T12:02:12.447Z,100643.16
2019-03-26T12:04:44.269Z,100642.27
2019-03-26T12:07:15.840Z,100635.94
2019-03-26T12:09:47.476Z,100641.66
2019-03-26T12:12:19.895Z,100639.00
2019-03-26T12:14:57.730Z,100634.31
2019-03-26T12:17:31.382Z,100633.37
2019-03-26T12:20:03.426Z,100631.22
2019-03-26T12:22:34.969Z,100629.66
2019-03-26T12:25:07.352Z,100623.35
2019-03-26T12:27:39.020Z,100628.75
2019-03-26T12:30:10.664Z,100630.95
2019-03-26T12:32:42.655Z,100627.06
2019-03-26T12:35:17.274Z,100640.66
2019-03-26T12:37:48.942Z,100631.62
2019-03-26T12:40:20.688Z,100629.80
2019-03-26T12:42:52.556Z,100634.97
2019-03-26T12:45:24.220Z,100627.64
2019-03-26T12:47:55.873Z,100630.16
2019-03-26T12:50:27.415Z,100631.09
2019-03-26T12:52:58.780Z,100624.30
2019-03-26T12:55:30.644Z,100626.77
2019-03-26T12:58:01.981Z,100628.80
2019-03-26T13:00:33.855Z,100625.91
2019-03-26T13:03:05.513Z,100632.10
2019-03-26T13:05:36.947Z,100636.81
2019-03-26T13:08:08.810Z,100631.48
2019-03-26T13:10:52.905Z,100639.10
2019-03-26T13:13:13.785Z,100639.40
2019-03-26T13:15:45.444Z,100634.63
2019-03-26T13:18:17.001Z,100628.66
2019-03-26T13:20:49.050Z,100628.32
2019-03-26T13:23:20.617Z,100629.33
2019-03-26T13:25:52.457Z,100623.84
2019-03-26T13:28:24.035Z,100622.53
2019-03-26T13:30:55.466Z,100625.14
2019-03-26T13:33:27.131Z,100628.17
2019-03-26T13:35:58.803Z,100617.92
2019-03-26T13:38:30.647Z,100614.89
2019-03-26T13:41:02.308Z,100623.84
2019-03-26T13:43:34.186Z,100618.97
2019-03-26T13:46:05.845Z,100621.38
2019-03-26T13:48:37.484Z,100617.09
2019-03-26T13:51:09.263Z,100613.64
2019-03-26T13:53:40.918Z,100619.06
2019-03-26T13:56:12.461Z,100623.09
2019-03-26T13:58:44.126Z,100618.45
2019-03-26T14:01:15.768Z,100615.36
2019-03-26T14:03:47.632Z,100610.36
2019-03-26T14:06:19.308Z,100616.25
2019-03-26T14:08:51.069Z,100612.77
2019-03-26T14:11:22.725Z,100608.20
2019-03-26T14:13:54.463Z,100605.66
2019-03-26T14:16:26.140Z,100615.53
2019-03-26T14:18:58.106Z,100611.64
2019-03-26T14:21:29.660Z,100610.02
2019-03-26T14:24:01.315Z,100613.82
2019-03-26T14:26:33.075Z,100613.01
2019-03-26T14:29:04.631Z,100616.13
2019-03-26T14:31:36.496Z,100621.75
2019-03-26T14:34:08.078Z,100621.05
2019-03-26T14:36:40.009Z,100624.69
2019-03-26T14:39:11.598Z,100629.15
2019-03-26T14:41:43.224Z,100630.94
2019-03-26T14:44:14.866Z,100634.61
2019-03-26T14:46:46.520Z,100633.41
2019-03-26T14:49:18.400Z,100629.51
2019-03-26T14:51:50.059Z,100626.94
2019-03-26T14:54:21.907Z,100625.28
2019-03-26T14:56:53.477Z,100621.64
2019-03-26T14:59:25.034Z,100624.47
2019-03-26T15:01:57.807Z,100628.90
2019-03-26T15:04:29.274Z,100634.92
2019-03-26T15:07:01.120Z,100636.13
2019-03-26T15:09:32.802Z,100637.84
2019-03-26T15:12:04.654Z,100641.19
2019-03-26T15:14:36.314Z,100639.90
2019-03-26T15:17:08.283Z,100639.70
2019-03-26T15:19:40.052Z,100640.56
2019-03-26T15:22:11.803Z,100643.59
2019-03-26T15:24:44.634Z,100647.20
2019-03-26T15:27:18.220Z,100644.55
2019-03-26T15:29:49.643Z,100649.50
2019-03-26T15:32:21.074Z,100644.14
2019-03-26T15:34:52.649Z,100643.87
2019-03-26T15:37:24.596Z,100642.32
2019-03-26T15:39:56.168Z,100643.70
2019-03-26T15:42:27.924Z,100646.44
2019-03-26T15:44:59.611Z,100643.77
2019-03-26T15:47:31.145Z,100648.41
2019-03-26T15:50:02.804Z,100650.67
2019-03-26T15:52:34.456Z,100639.88
2019-03-26T15:55:06.826Z,100638.58
2019-03-26T15:57:39.003Z,100636.48
2019-03-26T16:00:11.525Z,100635.18
2019-03-26T16:02:46.289Z,100647.41
2019-03-26T16:05:18.190Z,100652.58
2019-03-26T16:07:49.842Z,100664.77
2019-03-26T16:10:22.319Z,100672.18
2019-03-26T16:12:54.043Z,100678.84
2019-03-26T16:15:25.707Z,100701.98
2019-03-26T16:17:57.390Z,100691.01
2019-03-26T16:20:30.672Z,100693.05
2019-03-26T16:23:02.318Z,100693.40
2019-03-26T16:25:34.282Z,100708.63
2019-03-26T16:28:07.184Z,100699.48
2019-03-26T16:30:38.942Z,100719.02
2019-03-26T16:33:10.598Z,100712.59
2019-03-26T16:35:42.444Z,100716.68
2019-03-26T16:38:14.006Z,100721.34
2019-03-26T16:40:45.676Z,100732.44
2019-03-26T16:43:17.475Z,100727.88
2019-03-26T16:45:49.080Z,100735.19
2019-03-26T16:48:20.834Z,100735.44
2019-03-26T16:50:52.648Z,100735.16
2019-03-26T16:53:30.525Z,100748.93
2019-03-26T16:56:02.181Z,100744.64
2019-03-26T17:01:14.813Z,100758.12
2019-03-26T17:03:46.656Z,100752.75
2019-03-26T17:06:18.533Z,100760.29
2019-03-26T17:08:50.102Z,100765.44
2019-03-26T17:11:21.949Z,100771.10
2019-03-26T17:13:53.505Z,100762.17
2019-03-26T17:16:25.365Z,100771.08
2019-03-26T17:18:57.124Z,100777.28
2019-03-26T17:21:28.970Z,100774.58
2019-03-26T17:24:01.485Z,100779.72
2019-03-26T17:26:33.111Z,100782.67
2019-03-26T17:29:05.091Z,100790.75
2019-03-26T17:31:43.963Z,100784.82
2019-03-26T17:34:15.884Z,100784.80
2019-03-26T17:36:47.564Z,100795.83
2019-03-26T17:39:19.392Z,100797.16
2019-03-26T17:41:51.132Z,100797.70
2019-03-26T17:44:22.719Z,100807.40
2019-03-26T17:46:54.874Z,100808.47
2019-03-26T17:49:26.512Z,100811.97
2019-03-26T17:51:58.644Z,100807.63
2019-03-26T17:54:30.355Z,100817.06
2019-03-26T17:57:14.878Z,100814.36
2019-03-26T17:59:48.114Z,100820.81
2019-03-26T18:02:19.666Z,100822.43
2019-03-26T18:04:51.982Z,100817.88
2019-03-26T18:07:23.604Z,100823.28
2019-03-26T18:09:55.355Z,100814.62
2019-03-26T18:12:31.129Z,100818.39
2019-03-26T18:15:00.357Z,100821.37
2019-03-26T18:17:31.746Z,100816.52
2019-03-26T18:20:03.921Z,100821.07
2019-03-26T18:22:36.393Z,100813.81
2019-03-26T18:25:08.945Z,100818.91
2019-03-26T18:27:41.258Z,100816.22
2019-03-26T18:30:12.803Z,100817.56
2019-03-26T18:32:44.685Z,100824.05
2019-03-26T18:35:16.442Z,100818.38
2019-03-26T18:37:48.195Z,100826.46
2019-03-26T18:40:20.004Z,100816.75
2019-03-26T18:42:51.412Z,100816.22
2019-03-26T18:45:22.938Z,100819.15
2019-03-26T18:47:54.696Z,100819.41
2019-03-26T18:50:26.365Z,100827.25
2019-03-26T18:52:57.931Z,100823.99
2019-03-26T18:55:29.705Z,100823.19
2019-03-26T18:58:01.452Z,100825.60
2019-03-26T19:00:38.143Z,100820.77
2019-03-26T19:03:09.790Z,100825.32
2019-03-26T19:05:41.447Z,100824.51
2019-03-26T19:08:14.756Z,100818.05
2019-03-26T19:10:46.602Z,100820.47
2019-03-26T19:13:20.094Z,100818.28
2019-03-26T19:15:51.236Z,100813.15
2019-03-26T19:18:23.109Z,100814.22
2019-03-26T19:21:02.036Z,100821.22
2019-03-26T19:23:27.752Z,100824.70
2019-03-26T19:25:59.942Z,100821.70
2019-03-26T19:28:31.693Z,100825.72
2019-03-26T19:31:05.680Z,100825.19
2019-03-26T19:33:37.557Z,100827.86
2019-03-26T19:36:09.406Z,100826.50
2019-03-26T19:38:40.974Z,100826.48
2019-03-26T19:41:13.144Z,100827.80
2019-03-26T19:43:44.880Z,100823.76
2019-03-26T19:46:16.454Z,100815.64
2019-03-26T19:48:48.113Z,100824.50
2019-03-26T19:51:19.957Z,100829.60
2019-03-26T19:53:51.720Z,100832.82
2019-03-26T19:56:23.576Z,100834.91
2019-03-26T19:58:55.458Z,100840.02
2019-03-26T20:01:27.032Z,100837.02
2019-03-26T20:04:19.667Z,100838.34
2019-03-26T20:06:52.134Z,100836.98
2019-03-26T20:09:24.078Z,100837.47
2019-03-26T20:11:55.569Z,100823.72
2019-03-26T20:14:27.816Z,100831.24
2019-03-26T20:16:59.585Z,100827.42
2019-03-26T20:19:31.236Z,100835.23
2019-03-26T20:22:02.976Z,100835.48
2019-03-26T20:24:46.548Z,100829.56
2019-03-26T20:27:18.086Z,100838.41
2019-03-26T20:29:49.541Z,100837.03
2019-03-26T20:32:21.460Z,100839.70
2019-03-26T20:34:53.456Z,100842.05
2019-03-26T20:37:27.068Z,100834.98
2019-03-26T20:39:58.623Z,100836.27
2019-03-26T20:42:30.403Z,100839.73
2019-03-26T20:45:02.071Z,100834.02
2019-03-26T20:47:33.691Z,100836.41
2019-03-26T20:50:08.342Z,100840.38
2019-03-26T20:52:39.868Z,100846.52
2019-03-26T20:55:12.034Z,100852.09
2019-03-26T20:57:45.437Z,100858.48
2019-03-26T21:00:20.075Z,100857.08
2019-03-26T21:02:51.618Z,100859.47
2019-03-26T21:05:23.496Z,100863.46
2019-03-26T21:07:56.176Z,100871.20
2019-03-26T21:10:27.968Z,100865.79
2019-03-26T21:12:59.387Z,100862.81
2019-03-26T21:15:31.140Z,100869.48
2019-03-26T21:18:03.000Z,100865.42
2019-03-26T21:20:34.761Z,100878.56
2019-03-26T21:23:06.722Z,100878.81
2019-03-26T21:25:38.471Z,100875.33
2019-03-26T21:28:09.933Z,100874.52
2019-03-26T21:30:41.508Z,100879.06
2019-03-26T21:33:13.023Z,100875.58
2019-03-26T21:35:44.786Z,100883.09
2019-03-26T21:38:16.541Z,100875.83
2019-03-26T21:40:48.511Z,100876.30
2019-03-26T21:43:21.947Z,100877.09
2019-03-26T21:45:53.576Z,100881.89
2019-03-26T21:48:25.774Z,100878.11
2019-03-26T21:50:57.736Z,100877.81
2019-03-26T21:53:29.262Z,100878.83
2019-03-26T21:56:06.829Z,100877.19
2019-03-26T21:58:34.518Z,100875.22
2019-03-26T22:01:05.974Z,100870.64
2019-03-26T22:03:37.802Z,100873.53
2019-03-26T22:06:09.204Z,100873.75
2019-03-26T22:08:41.573Z,100870.22
2019-03-26T22:11:13.151Z,100869.59
2019-03-26T22:13:44.472Z,100873.32
2019-03-26T22:16:15.954Z,100875.38
2019-03-26T22:18:47.786Z,100874.20
2019-03-26T22:21:19.667Z,100882.14
2019-03-26T22:23:51.180Z,100880.96
2019-03-26T22:26:22.729Z,100882.70
2019-03-26T22:28:54.299Z,100879.62
2019-03-26T22:31:25.859Z,100885.64
2019-03-26T22:33:57.612Z,100889.02
2019-03-26T22:36:29.258Z,100883.53
2019-03-26T22:39:01.035Z,100884.73
2019-03-26T22:41:34.237Z,100888.33
2019-03-26T22:44:05.677Z,100875.56
2019-03-26T22:46:37.528Z,100884.22
2019-03-26T22:49:09.208Z,100890.22
2019-03-26T22:51:40.759Z,100885.83
2019-03-26T22:54:12.615Z,100882.98
2019-03-26T22:56:44.383Z,100884.42
2019-03-26T22:59:16.017Z,100879.44
2019-03-26T23:01:47.878Z,100884.06
2019-03-26T23:04:20.095Z,100884.13
2019-03-26T23:06:51.612Z,100881.74
2019-03-26T23:09:23.601Z,100883.14
2019-03-26T23:11:55.037Z,100883.95
2019-03-26T23:14:27.924Z,100882.70
2019-03-26T23:16:59.485Z,100875.83
2019-03-26T23:19:31.240Z,100874.30
2019-03-26T23:22:02.790Z,100873.59
2019-03-26T23:24:34.546Z,100876.91
2019-03-26T23:27:06.206Z,100875.91
2019-03-26T23:29:39.254Z,100869.86
2019-03-26T23:32:11.537Z,100863.80
2019-03-26T23:34:43.305Z,100856.62
2019-03-26T23:37:15.295Z,100858.35
2019-03-26T23:39:47.132Z,100865.19
2019-03-26T23:42:18.711Z,100860.02
2019-03-26T23:44:58.195Z,100857.96
2019-03-26T23:47:23.693Z,100855.91
2019-03-26T23:49:55.313Z,100845.55
2019-03-26T23:52:27.073Z,100850.17
2019-03-26T23:54:58.612Z,100853.73
2019-03-26T23:57:30.981Z,100858.04
